createdAt,value
2022-09-07T00:01:01.111Z,25.51
2022-09-07T00:03:30.230Z,25.55
2022-09-07T00:05:58.475Z,25.71
2022-09-07T00:08:27.497Z,25.85
2022-09-07T00:11:02.004Z,25.82
2022-09-07T00:13:34.634Z,25.88
2022-09-07T00:16:26.451Z,25.75
2022-09-07T00:18:57.106Z,25.82
2022-09-07T00:21:25.777Z,25.77
2022-09-07T00:23:54.616Z,25.48
2022-09-07T00:26:25.350Z,25.35
2022-09-07T00:28:56.207Z,25.27
2022-09-07T00:31:24.669Z,25.38
2022-09-07T00:33:53.492Z,25.42
2022-09-07T00:36:22.607Z,25.33
2022-09-07T00:38:50.676Z,25.14
2022-09-07T00:41:19.546Z,25.12
2022-09-07T00:43:50.981Z,25.18
2022-09-07T00:46:20.146Z,25.27
2022-09-07T00:49:08.186Z,25.17
2022-09-07T00:51:40.869Z,25.13
2022-09-07T00:54:12.807Z,25.29
2022-09-07T00:56:44.123Z,25.32
2022-09-07T00:59:14.483Z,25.39
2022-09-07T01:01:42.450Z,25.38
2022-09-07T01:04:10.299Z,25.18
2022-09-07T01:06:39.736Z,25.12
2022-09-07T01:09:14.289Z,25.13
2022-09-07T01:11:45.739Z,25.16
2022-09-07T01:14:15.415Z,24.97
2022-09-07T01:16:59.784Z,24.93
2022-09-07T01:19:27.245Z,25.03
2022-09-07T01:21:57.598Z,25.12
2022-09-07T01:25:11.036Z,25.18
2022-09-07T01:28:06.141Z,25.12
2022-09-07T01:30:37.693Z,25.05
2022-09-07T01:33:20.030Z,25.32
2022-09-07T01:36:10.894Z,25.26
2022-09-07T01:38:53.261Z,25.33
2022-09-07T01:41:45.101Z,25.25
2022-09-07T01:44:27.244Z,25.34
2022-09-07T01:47:10.122Z,25.43
2022-09-07T01:49:47.492Z,25.42
2022-09-07T01:52:24.037Z,25.47
2022-09-07T01:54:59.672Z,25.14
2022-09-07T01:57:34.133Z,25.00
2022-09-07T02:00:12.791Z,25.00
2022-09-07T02:03:16.588Z,24.96
2022-09-07T02:05:58.485Z,25.14
2022-09-07T02:08:32.251Z,25.15
2022-09-07T02:11:06.889Z,24.97
2022-09-07T02:13:40.163Z,24.99
2022-09-07T02:16:13.184Z,24.94
2022-09-07T02:18:55.378Z,25.14
2022-09-07T02:21:29.065Z,25.21
2022-09-07T02:24:05.148Z,25.10
2022-09-07T02:26:37.576Z,25.15
2022-09-07T02:29:05.668Z,25.14
2022-09-07T02:31:33.663Z,25.17
2022-09-07T02:34:04.200Z,25.09
2022-09-07T02:36:38.235Z,24.99
2022-09-07T02:39:05.899Z,24.96
2022-09-07T02:41:42.371Z,25.03
2022-09-07T02:44:21.076Z,24.97
2022-09-07T02:46:57.261Z,25.05
2022-09-07T02:49:42.748Z,24.83
2022-09-07T02:52:23.124Z,24.75
2022-09-07T02:55:09.082Z,24.67
2022-09-07T02:57:55.291Z,24.65
2022-09-07T03:00:26.343Z,24.65
2022-09-07T03:03:15.392Z,24.59
2022-09-07T03:05:47.422Z,24.62
2022-09-07T03:08:26.194Z,24.59
2022-09-07T03:10:54.645Z,24.56
2022-09-07T03:13:29.045Z,24.46
2022-09-07T03:15:57.187Z,24.41
2022-09-07T03:18:26.644Z,24.42
2022-09-07T03:20:54.864Z,24.50
2022-09-07T03:23:22.504Z,24.45
2022-09-07T03:25:50.555Z,24.54
2022-09-07T03:28:18.490Z,24.38
2022-09-07T03:30:47.533Z,24.41
2022-09-07T03:33:16.634Z,24.38
2022-09-07T03:35:56.823Z,24.54
2022-09-07T03:38:24.471Z,24.38
2022-09-07T03:41:03.309Z,24.44
2022-09-07T03:43:31.702Z,24.51
2022-09-07T03:46:05.160Z,24.54
2022-09-07T03:48:34.718Z,24.61
2022-09-07T03:51:08.480Z,24.59
2022-09-07T03:53:38.943Z,24.64
2022-09-07T03:56:09.029Z,24.70
2022-09-07T03:58:36.988Z,24.65
2022-09-07T04:01:07.720Z,24.65
2022-09-07T04:03:36.002Z,24.49
2022-09-07T04:06:04.511Z,24.48
2022-09-07T04:08:33.859Z,24.45
2022-09-07T04:11:03.431Z,24.19
2022-09-07T04:13:32.239Z,24.30
2022-09-07T04:15:59.854Z,24.36
2022-09-07T04:18:28.268Z,24.41
2022-09-07T04:20:59.381Z,24.27
2022-09-07T04:23:27.363Z,24.32
2022-09-07T04:25:55.506Z,24.25
2022-09-07T04:28:23.152Z,24.09
2022-09-07T04:30:51.907Z,24.09
2022-09-07T04:33:20.208Z,24.12
2022-09-07T04:35:48.224Z,24.15
2022-09-07T04:38:16.738Z,24.22
2022-09-07T04:40:44.579Z,24.25
2022-09-07T04:43:13.361Z,24.26
2022-09-07T04:45:41.890Z,24.22
2022-09-07T04:48:10.232Z,24.01
2022-09-07T04:50:37.861Z,23.96
2022-09-07T04:53:05.437Z,24.10
2022-09-07T04:55:33.314Z,24.16
2022-09-07T04:58:01.345Z,23.85
2022-09-07T05:00:29.046Z,23.89
2022-09-07T05:02:57.552Z,23.91
2022-09-07T05:05:25.785Z,23.99
2022-09-07T05:07:53.336Z,24.11
2022-09-07T05:10:21.412Z,24.04
2022-09-07T05:12:49.037Z,24.12
2022-09-07T05:15:16.702Z,24.26
2022-09-07T05:17:44.283Z,24.33
2022-09-07T05:20:12.400Z,24.42
2022-09-07T05:22:41.172Z,24.49
2022-09-07T05:25:09.661Z,24.53
2022-09-07T05:27:37.592Z,24.69
2022-09-07T05:30:06.603Z,24.78
2022-09-07T05:32:34.717Z,24.89
2022-09-07T05:35:02.406Z,24.95
2022-09-07T05:37:30.169Z,24.96
2022-09-07T05:39:58.419Z,24.79
2022-09-07T05:42:26.863Z,24.95
2022-09-07T05:44:55.116Z,24.93
2022-09-07T05:47:23.799Z,24.91
2022-09-07T05:49:52.948Z,25.14
2022-09-07T05:52:23.159Z,25.16
2022-09-07T05:54:50.638Z,25.10
2022-09-07T05:57:18.786Z,25.24
2022-09-07T05:59:47.264Z,25.43
2022-09-07T06:02:15.799Z,25.26
2022-09-07T06:04:44.194Z,25.15
2022-09-07T06:07:22.086Z,25.31
2022-09-07T06:12:38.989Z,25.32
2022-09-07T06:15:07.329Z,25.20
2022-09-07T06:17:34.845Z,25.21
2022-09-07T06:20:03.352Z,25.20
2022-09-07T06:22:32.071Z,25.17
2022-09-07T06:25:00.272Z,25.18
2022-09-07T06:27:28.265Z,25.49
2022-09-07T06:29:56.330Z,25.68
2022-09-07T06:35:12.160Z,25.76
2022-09-07T06:37:41.095Z,25.93
2022-09-07T06:40:10.991Z,26.05
2022-09-07T06:42:39.190Z,26.18
2022-09-07T06:45:07.125Z,26.22
2022-09-07T06:47:34.815Z,26.29
2022-09-07T06:50:03.133Z,26.37
2022-09-07T06:55:19.260Z,26.42
2022-09-07T06:57:47.688Z,26.22
2022-09-07T07:00:16.437Z,26.29
2022-09-07T07:02:44.574Z,26.24
2022-09-07T07:05:12.590Z,26.46
2022-09-07T07:07:40.246Z,26.60
2022-09-07T07:10:08.575Z,26.54
2022-09-07T07:15:02.763Z,26.36
2022-09-07T07:17:30.866Z,26.27
2022-09-07T07:19:58.400Z,26.25
2022-09-07T07:25:15.125Z,26.67
2022-09-07T07:27:44.005Z,26.63
2022-09-07T07:30:16.735Z,27.03
2022-09-07T07:32:45.275Z,27.05
2022-09-07T07:35:14.271Z,27.31
2022-09-07T07:37:42.400Z,27.40
2022-09-07T07:42:45.077Z,27.56
2022-09-07T07:48:01.639Z,27.70
2022-09-07T07:50:31.084Z,27.76
2022-09-07T07:55:47.813Z,28.28
2022-09-07T07:58:15.872Z,28.74
2022-09-07T08:00:54.411Z,29.30
2022-09-07T08:03:24.630Z,29.93
2022-09-07T08:05:53.066Z,30.33
2022-09-07T08:08:23.207Z,30.54
2022-09-07T08:10:51.076Z,30.69
2022-09-07T08:13:19.307Z,30.99
2022-09-07T08:15:47.449Z,30.92
2022-09-07T08:18:16.985Z,30.89
2022-09-07T08:20:45.487Z,30.90
2022-09-07T08:23:14.771Z,31.01
2022-09-07T08:25:58.294Z,30.35
2022-09-07T08:28:31.208Z,29.90
2022-09-07T08:31:03.790Z,29.86
2022-09-07T08:33:31.873Z,29.45
2022-09-07T08:36:02.851Z,29.83
2022-09-07T08:38:32.778Z,30.22
2022-09-07T08:41:02.854Z,30.37
2022-09-07T08:43:49.159Z,30.03
2022-09-07T08:46:40.309Z,30.33
2022-09-07T08:49:21.814Z,30.07
2022-09-07T08:52:02.901Z,30.36
2022-09-07T08:54:31.227Z,30.68
2022-09-07T09:00:16.838Z,31.21
2022-09-07T09:02:45.998Z,32.12
2022-09-07T09:05:23.978Z,31.11
2022-09-07T09:08:13.490Z,31.13
2022-09-07T09:10:47.303Z,31.78
2022-09-07T09:13:55.154Z,32.12
2022-09-07T09:16:42.946Z,32.59
2022-09-07T09:19:25.956Z,31.25
2022-09-07T09:22:09.418Z,31.26
2022-09-07T09:24:42.939Z,31.94
2022-09-07T09:27:11.329Z,32.94
2022-09-07T09:29:38.892Z,33.10
2022-09-07T09:32:31.973Z,33.29
2022-09-07T09:35:13.308Z,33.37
2022-09-07T09:37:43.532Z,33.66
2022-09-07T09:40:24.893Z,34.01
2022-09-07T09:43:01.879Z,33.78
2022-09-07T09:46:12.159Z,33.67
2022-09-07T09:48:32.743Z,32.55
2022-09-07T09:54:06.149Z,33.86
2022-09-07T09:56:39.303Z,34.26
2022-09-07T10:05:27.302Z,35.79
2022-09-07T10:07:55.024Z,35.59
2022-09-07T10:10:22.731Z,35.39
2022-09-07T10:12:54.310Z,35.10
2022-09-07T10:15:40.940Z,35.94
2022-09-07T10:18:19.428Z,37.31
2022-09-07T10:20:46.921Z,37.96
2022-09-07T10:23:23.411Z,36.53
2022-09-07T10:25:51.340Z,37.07
2022-09-07T10:28:21.726Z,36.88
2022-09-07T10:31:22.223Z,36.46
2022-09-07T10:36:53.481Z,35.37
2022-09-07T10:39:26.945Z,35.50
2022-09-07T10:42:05.153Z,34.95
2022-09-07T10:44:57.366Z,35.71
2022-09-07T10:47:46.788Z,36.69
2022-09-07T10:50:39.656Z,36.29
2022-09-07T10:53:41.702Z,35.59
2022-09-07T10:56:15.170Z,36.02
2022-09-07T10:59:04.519Z,35.58
2022-09-07T11:02:17.900Z,36.10
2022-09-07T11:05:00.357Z,35.96
2022-09-07T11:07:41.746Z,35.29
2022-09-07T11:10:25.338Z,35.27
2022-09-07T11:12:58.098Z,35.41
2022-09-07T11:15:29.989Z,34.09
2022-09-07T11:18:05.694Z,34.07
2022-09-07T11:20:42.733Z,34.99
2022-09-07T11:23:44.249Z,35.61
2022-09-07T11:26:22.697Z,36.00
2022-09-07T11:31:56.128Z,35.99
2022-09-07T11:34:33.701Z,36.25
2022-09-07T11:37:34.236Z,37.47
2022-09-07T11:40:22.679Z,37.23
2022-09-07T11:42:55.949Z,36.92
2022-09-07T11:45:30.890Z,36.64
2022-09-07T11:48:09.621Z,36.16
2022-09-07T11:50:43.905Z,36.04
2022-09-07T11:53:23.332Z,35.90
2022-09-07T11:55:58.193Z,34.71
2022-09-07T11:58:37.211Z,34.17
2022-09-07T12:01:17.780Z,34.65
2022-09-07T12:04:42.871Z,34.81
2022-09-07T12:07:25.898Z,35.01
2022-09-07T12:10:26.177Z,35.43
2022-09-07T12:13:25.930Z,34.85
2022-09-07T12:16:06.175Z,34.78
2022-09-07T12:19:06.798Z,35.23
2022-09-07T12:21:52.759Z,34.91
2022-09-07T12:24:44.238Z,34.95
2022-09-07T12:27:20.881Z,35.26
2022-09-07T12:30:13.977Z,35.50
2022-09-07T12:32:56.032Z,36.34
2022-09-07T12:35:27.147Z,35.83
2022-09-07T12:37:56.449Z,35.94
2022-09-07T12:40:36.016Z,36.86
2022-09-07T12:43:12.597Z,36.61
2022-09-07T12:45:40.133Z,36.02
2022-09-07T12:48:17.153Z,36.13
2022-09-07T12:50:51.065Z,36.34
2022-09-07T12:53:18.611Z,36.21
2022-09-07T12:58:58.264Z,37.58
2022-09-07T13:01:26.225Z,37.54
2022-09-07T13:04:12.801Z,37.35
2022-09-07T13:07:02.520Z,38.98
2022-09-07T13:09:37.607Z,40.59
2022-09-07T13:12:53.974Z,41.01
2022-09-07T13:15:40.685Z,41.46
2022-09-07T13:18:28.795Z,41.56
2022-09-07T13:21:08.553Z,40.57
2022-09-07T13:23:41.262Z,40.05
2022-09-07T13:26:51.322Z,38.98
2022-09-07T13:29:24.098Z,37.89
2022-09-07T13:31:52.834Z,38.27
2022-09-07T13:34:32.655Z,38.05
2022-09-07T13:37:01.968Z,38.36
2022-09-07T13:39:44.623Z,37.31
2022-09-07T13:42:18.656Z,36.97
2022-09-07T13:44:57.928Z,37.31
2022-09-07T13:47:43.756Z,35.93
2022-09-07T13:50:29.212Z,36.43
2022-09-07T13:53:14.892Z,35.79
2022-09-07T13:55:51.368Z,35.65
2022-09-07T13:58:29.475Z,36.03
2022-09-07T14:01:14.212Z,35.57
2022-09-07T14:03:54.806Z,36.04
2022-09-07T14:06:22.386Z,35.33
2022-09-07T14:08:52.512Z,35.22
2022-09-07T14:11:26.682Z,34.57
2022-09-07T14:14:27.727Z,33.80
2022-09-07T14:17:01.064Z,33.26
2022-09-07T14:19:45.303Z,33.03
2022-09-07T14:22:22.295Z,33.81
2022-09-07T14:24:53.198Z,33.94
2022-09-07T14:27:20.766Z,34.30
2022-09-07T14:29:48.446Z,34.86
2022-09-07T14:32:20.904Z,35.57
2022-09-07T14:34:49.975Z,35.48
2022-09-07T14:37:21.298Z,35.24
2022-09-07T14:39:50.768Z,35.48
2022-09-07T14:42:23.796Z,35.13
2022-09-07T14:45:18.543Z,35.33
2022-09-07T14:47:49.059Z,35.76
2022-09-07T14:50:23.321Z,37.18
2022-09-07T14:55:44.999Z,36.16
2022-09-07T14:58:15.447Z,36.19
2022-09-07T15:03:38.439Z,36.59
2022-09-07T15:06:08.263Z,37.44
2022-09-07T15:08:43.600Z,36.16
2022-09-07T15:11:37.949Z,36.20
2022-09-07T15:14:08.667Z,36.14
2022-09-07T15:16:41.460Z,36.35
2022-09-07T15:19:15.612Z,37.47
2022-09-07T15:21:44.253Z,36.77
2022-09-07T15:24:12.262Z,36.78
2022-09-07T15:29:30.025Z,36.68
2022-09-07T15:32:03.860Z,36.68
2022-09-07T15:34:34.402Z,37.01
2022-09-07T15:37:04.193Z,38.05
2022-09-07T15:39:50.916Z,37.54
2022-09-07T15:45:07.456Z,37.12
2022-09-07T15:47:47.155Z,36.81
2022-09-07T15:50:18.801Z,36.95
2022-09-07T15:52:46.920Z,38.93
2022-09-07T15:55:17.101Z,39.14
2022-09-07T15:57:51.182Z,39.48
2022-09-07T16:00:20.946Z,39.76
2022-09-07T16:03:06.120Z,39.67
2022-09-07T16:05:34.979Z,39.94
2022-09-07T16:10:54.039Z,36.87
2022-09-07T16:13:24.376Z,35.63
2022-09-07T16:15:52.216Z,34.32
2022-09-07T16:18:19.868Z,32.88
2022-09-07T16:20:52.195Z,32.51
2022-09-07T16:23:20.176Z,32.54
2022-09-07T16:25:59.693Z,32.33
2022-09-07T16:28:28.382Z,32.12
2022-09-07T16:30:57.037Z,32.06
2022-09-07T16:33:33.110Z,32.39
2022-09-07T16:36:07.078Z,32.31
2022-09-07T16:38:50.893Z,32.60
2022-09-07T16:41:26.699Z,32.19
2022-09-07T16:43:54.803Z,31.80
2022-09-07T16:46:24.849Z,31.61
2022-09-07T16:48:54.375Z,31.52
2022-09-07T16:51:23.361Z,31.12
2022-09-07T16:53:53.654Z,31.20
2022-09-07T16:56:24.692Z,31.05
2022-09-07T16:58:57.545Z,31.26
2022-09-07T17:01:30.691Z,31.36
2022-09-07T17:03:58.620Z,30.99
2022-09-07T17:06:28.813Z,30.68
2022-09-07T17:08:57.343Z,30.48
2022-09-07T17:11:36.275Z,30.22
2022-09-07T17:14:06.736Z,30.28
2022-09-07T17:16:36.867Z,30.00
2022-09-07T17:21:55.433Z,29.43
2022-09-07T17:24:25.040Z,29.53
2022-09-07T17:26:53.127Z,29.18
2022-09-07T17:29:20.879Z,29.09
2022-09-07T17:34:36.370Z,28.91
2022-09-07T17:37:04.062Z,28.91
2022-09-07T17:39:31.643Z,29.03
2022-09-07T17:41:59.556Z,28.87
2022-09-07T17:44:30.759Z,28.62
2022-09-07T17:47:01.283Z,28.62
2022-09-07T17:49:29.539Z,28.63
2022-09-07T17:51:58.650Z,28.49
2022-09-07T17:54:26.467Z,28.46
2022-09-07T17:56:54.409Z,28.49
2022-09-07T18:02:13.825Z,28.28
2022-09-07T18:04:41.691Z,28.20
2022-09-07T18:07:09.436Z,28.16
2022-09-07T18:09:37.699Z,28.12
2022-09-07T18:12:05.889Z,28.01
2022-09-07T18:14:33.611Z,28.08
2022-09-07T18:17:01.229Z,28.19
2022-09-07T18:19:29.234Z,28.09
2022-09-07T18:21:56.897Z,27.88
2022-09-07T18:24:24.569Z,27.86
2022-09-07T18:26:54.246Z,27.67
2022-09-07T18:29:32.324Z,27.54
2022-09-07T18:32:07.398Z,27.59
2022-09-07T18:34:36.234Z,27.61
2022-09-07T18:37:05.142Z,27.51
2022-09-07T18:39:33.659Z,27.69
2022-09-07T18:42:01.368Z,27.69
2022-09-07T18:47:27.605Z,27.37
2022-09-07T18:49:56.527Z,27.30
2022-09-07T18:55:13.073Z,27.14
2022-09-07T18:57:41.228Z,27.19
2022-09-07T19:00:10.856Z,27.27
2022-09-07T19:02:38.737Z,27.14
2022-09-07T19:07:54.476Z,26.85
2022-09-07T19:10:23.147Z,26.81
2022-09-07T19:12:50.699Z,26.63
2022-09-07T19:15:20.489Z,26.65
2022-09-07T19:17:48.456Z,26.51
2022-09-07T19:20:16.425Z,26.29
2022-09-07T19:22:44.050Z,26.35
2022-09-07T19:25:12.125Z,26.44
2022-09-07T19:27:40.200Z,26.53
2022-09-07T19:30:08.969Z,26.65
2022-09-07T19:32:37.077Z,26.59
2022-09-07T19:35:05.667Z,26.44
2022-09-07T19:37:33.428Z,26.46
2022-09-07T19:40:01.585Z,26.32
2022-09-07T19:42:29.675Z,26.22
2022-09-07T19:44:57.685Z,26.14
2022-09-07T19:47:26.256Z,26.12
2022-09-07T19:49:54.409Z,26.20
2022-09-07T19:52:22.010Z,26.25
2022-09-07T19:54:50.648Z,26.20
2022-09-07T19:57:18.873Z,26.30
2022-09-07T19:59:47.331Z,26.35
2022-09-07T20:02:16.051Z,26.24
2022-09-07T20:04:44.655Z,26.23
2022-09-07T20:07:13.471Z,26.28
2022-09-07T20:09:41.608Z,26.35
2022-09-07T20:12:09.789Z,26.34
2022-09-07T20:14:38.001Z,26.26
2022-09-07T20:17:06.304Z,26.05
2022-09-07T20:19:34.212Z,26.07
2022-09-07T20:22:02.774Z,26.17
2022-09-07T20:24:31.393Z,26.00
2022-09-07T20:26:59.817Z,26.09
2022-09-07T20:29:29.032Z,26.19
2022-09-07T20:32:01.164Z,26.11
2022-09-07T20:34:29.305Z,26.08
2022-09-07T20:36:57.738Z,26.28
2022-09-07T20:39:26.194Z,26.27
2022-09-07T20:41:54.680Z,26.15
2022-09-07T20:44:22.864Z,26.08
2022-09-07T20:46:50.615Z,26.05
2022-09-07T20:49:18.206Z,26.01
2022-09-07T20:51:46.203Z,25.92
2022-09-07T20:54:14.693Z,25.85
2022-09-07T20:56:43.094Z,25.87
2022-09-07T20:59:12.205Z,25.74
2022-09-07T21:01:39.746Z,25.68
2022-09-07T21:04:08.225Z,25.79
2022-09-07T21:06:36.159Z,25.74
2022-09-07T21:09:04.847Z,25.64
2022-09-07T21:11:35.156Z,25.67
2022-09-07T21:14:11.949Z,25.64
2022-09-07T21:16:40.421Z,25.60
2022-09-07T21:19:11.158Z,25.54
2022-09-07T21:21:43.539Z,25.51
2022-09-07T21:24:23.304Z,25.50
2022-09-07T21:26:51.340Z,25.45
2022-09-07T21:29:21.993Z,25.37
2022-09-07T21:31:52.710Z,25.23
2022-09-07T21:34:21.414Z,25.19
2022-09-07T21:36:49.362Z,25.31
2022-09-07T21:39:18.486Z,25.49
2022-09-07T21:41:47.107Z,25.33
2022-09-07T21:44:16.780Z,25.49
2022-09-07T21:46:45.118Z,25.54
2022-09-07T21:49:13.325Z,25.38
2022-09-07T21:51:41.253Z,25.54
2022-09-07T21:54:09.429Z,25.39
2022-09-07T21:56:37.483Z,25.28
2022-09-07T21:59:06.279Z,25.21
2022-09-07T22:01:34.435Z,25.29
2022-09-07T22:04:04.321Z,25.23
2022-09-07T22:06:32.589Z,25.36
2022-09-07T22:09:01.456Z,25.43
2022-09-07T22:11:30.468Z,25.28
2022-09-07T22:14:02.012Z,25.16
2022-09-07T22:16:31.883Z,25.05
2022-09-07T22:18:59.982Z,25.09
2022-09-07T22:21:30.204Z,25.14
2022-09-07T22:24:04.164Z,25.20
2022-09-07T22:26:38.083Z,24.97
2022-09-07T22:29:08.147Z,24.93
2022-09-07T22:31:37.726Z,24.99
2022-09-07T22:34:10.099Z,25.03
2022-09-07T22:36:43.889Z,25.00
2022-09-07T22:39:15.388Z,25.14
2022-09-07T22:41:45.111Z,25.08
2022-09-07T22:44:16.048Z,25.05
2022-09-07T22:46:46.459Z,25.09
2022-09-07T22:49:16.379Z,25.07
2022-09-07T22:51:44.817Z,25.08
2022-09-07T22:54:12.851Z,25.22
2022-09-07T22:56:40.914Z,25.06
2022-09-07T22:59:09.530Z,24.99
2022-09-07T23:01:37.345Z,24.97
2022-09-07T23:04:05.398Z,24.86
2022-09-07T23:06:36.067Z,24.74
2022-09-07T23:09:09.543Z,24.74
2022-09-07T23:11:37.600Z,24.90
2022-09-07T23:14:08.702Z,24.88
2022-09-07T23:16:36.190Z,24.82
2022-09-07T23:19:04.045Z,24.80
2022-09-07T23:21:31.506Z,24.80
2022-09-07T23:24:00.297Z,24.92
2022-09-07T23:26:30.330Z,24.90
2022-09-07T23:28:59.815Z,24.87
2022-09-07T23:31:29.333Z,24.93
2022-09-07T23:33:57.795Z,24.94
2022-09-07T23:36:26.345Z,24.82
2022-09-07T23:38:55.517Z,24.85
2022-09-07T23:41:23.405Z,24.68
2022-09-07T23:43:52.203Z,24.69
2022-09-07T23:46:20.849Z,24.68
2022-09-07T23:48:49.067Z,24.66
2022-09-07T23:51:21.215Z,24.76
2022-09-07T23:53:51.864Z,24.79
2022-09-07T23:56:20.110Z,24.67
2022-09-07T23:58:47.899Z,24.67
